sensor_id;sensor_type;location;lat;lon;timestamp;temperature;humidity
66608;DHT22;53462;39.616;8.824;2023-02-23T00:01:58;11.90;99.90
66608;DHT22;53462;39.616;8.824;2023-02-23T00:04:28;11.90;99.90
66608;DHT22;53462;39.616;8.824;2023-02-23T00:06:54;11.90;99.90
66608;DHT22;53462;39.616;8.824;2023-02-23T00:09:20;12.00;99.90
66608;DHT22;53462;39.616;8.824;2023-02-23T00:11:54;12.00;99.90
66608;DHT22;53462;39.616;8.824;2023-02-23T00:14:25;11.90;99.90
66608;DHT22;53462;39.616;8.824;2023-02-23T00:16:56;11.80;99.90
66608;DHT22;53462;39.616;8.824;2023-02-23T00:19:22;11.80;99.90
66608;DHT22;53462;39.616;8.824;2023-02-23T00:21:49;11.70;99.90
66608;DHT22;53462;39.616;8.824;2023-02-23T00:24:16;11.50;99.90
66608;DHT22;53462;39.616;8.824;2023-02-23T00:26:51;11.50;99.90
66608;DHT22;53462;39.616;8.824;2023-02-23T00:29:20;11.40;99.90
66608;DHT22;53462;39.616;8.824;2023-02-23T00:31:47;11.40;99.90
66608;DHT22;53462;39.616;8.824;2023-02-23T00:34:15;11.40;99.90
66608;DHT22;53462;39.616;8.824;2023-02-23T00:36:48;11.60;99.90
66608;DHT22;53462;39.616;8.824;2023-02-23T00:39:14;11.60;99.90
66608;DHT22;53462;39.616;8.824;2023-02-23T00:41:58;11.50;99.90
66608;DHT22;53462;39.616;8.824;2023-02-23T00:44:28;11.50;99.90
66608;DHT22;53462;39.616;8.824;2023-02-23T00:46:54;11.60;99.90
66608;DHT22;53462;39.616;8.824;2023-02-23T00:49:21;11.60;99.90
66608;DHT22;53462;39.616;8.824;2023-02-23T00:51:49;11.60;99.90
66608;DHT22;53462;39.616;8.824;2023-02-23T00:54:17;11.60;99.90
66608;DHT22;53462;39.616;8.824;2023-02-23T00:56:44;11.70;99.90
66608;DHT22;53462;39.616;8.824;2023-02-23T00:59:10;11.70;99.90
66608;DHT22;53462;39.616;8.824;2023-02-23T01:01:37;11.60;99.90
66608;DHT22;53462;39.616;8.824;2023-02-23T01:04:06;11.60;99.90
66608;DHT22;53462;39.616;8.824;2023-02-23T01:06:33;11.70;99.90
66608;DHT22;53462;39.616;8.824;2023-02-23T01:09:09;11.70;99.90
66608;DHT22;53462;39.616;8.824;2023-02-23T01:11:37;11.70;99.90
66608;DHT22;53462;39.616;8.824;2023-02-23T01:14:03;11.60;99.90
66608;DHT22;53462;39.616;8.824;2023-02-23T01:16:32;11.50;99.90
66608;DHT22;53462;39.616;8.824;2023-02-23T01:19:00;11.50;99.90
66608;DHT22;53462;39.616;8.824;2023-02-23T01:21:31;11.50;99.90
66608;DHT22;53462;39.616;8.824;2023-02-23T01:23:58;11.50;99.90
66608;DHT22;53462;39.616;8.824;2023-02-23T01:26:27;11.40;99.90
66608;DHT22;53462;39.616;8.824;2023-02-23T01:28:56;11.60;99.90
66608;DHT22;53462;39.616;8.824;2023-02-23T01:31:23;11.60;99.90
66608;DHT22;53462;39.616;8.824;2023-02-23T01:33:54;11.60;99.90
66608;DHT22;53462;39.616;8.824;2023-02-23T01:36:20;11.60;99.90
66608;DHT22;53462;39.616;8.824;2023-02-23T01:38:48;11.60;99.90
66608;DHT22;53462;39.616;8.824;2023-02-23T01:41:15;11.60;99.90
66608;DHT22;53462;39.616;8.824;2023-02-23T01:46:31;11.60;99.90
66608;DHT22;53462;39.616;8.824;2023-02-23T01:48:58;11.60;99.90
66608;DHT22;53462;39.616;8.824;2023-02-23T01:51:30;11.70;99.90
66608;DHT22;53462;39.616;8.824;2023-02-23T01:54:13;11.80;99.90
66608;DHT22;53462;39.616;8.824;2023-02-23T01:56:46;11.70;99.90
66608;DHT22;53462;39.616;8.824;2023-02-23T01:59:28;11.80;99.90
66608;DHT22;53462;39.616;8.824;2023-02-23T02:01:59;11.80;99.90
66608;DHT22;53462;39.616;8.824;2023-02-23T02:04:24;11.70;99.90
66608;DHT22;53462;39.616;8.824;2023-02-23T02:06:53;11.80;99.90
66608;DHT22;53462;39.616;8.824;2023-02-23T02:09:21;11.70;99.90
66608;DHT22;53462;39.616;8.824;2023-02-23T02:11:50;11.60;99.90
66608;DHT22;53462;39.616;8.824;2023-02-23T02:14:26;11.50;99.90
66608;DHT22;53462;39.616;8.824;2023-02-23T02:20:15;11.20;99.90
66608;DHT22;53462;39.616;8.824;2023-02-23T02:26:03;11.10;99.90
66608;DHT22;53462;39.616;8.824;2023-02-23T02:47:57;11.40;99.90
66608;DHT22;53462;39.616;8.824;2023-02-23T02:50:30;11.30;99.90
66608;DHT22;53462;39.616;8.824;2023-02-23T02:53:06;11.20;99.90
66608;DHT22;53462;39.616;8.824;2023-02-23T02:55:34;11.30;99.90
66608;DHT22;53462;39.616;8.824;2023-02-23T02:58:04;11.40;99.90
66608;DHT22;53462;39.616;8.824;2023-02-23T03:00:37;11.50;99.90
66608;DHT22;53462;39.616;8.824;2023-02-23T03:03:40;11.40;99.90
66608;DHT22;53462;39.616;8.824;2023-02-23T03:06:35;11.30;99.90
66608;DHT22;53462;39.616;8.824;2023-02-23T03:15:40;11.30;99.90
66608;DHT22;53462;39.616;8.824;2023-02-23T03:21:30;11.20;99.90
66608;DHT22;53462;39.616;8.824;2023-02-23T03:24:33;11.30;99.90
66608;DHT22;53462;39.616;8.824;2023-02-23T03:27:29;11.30;99.90
66608;DHT22;53462;39.616;8.824;2023-02-23T03:30:26;11.40;99.90
66608;DHT22;53462;39.616;8.824;2023-02-23T03:33:18;11.50;99.90
66608;DHT22;53462;39.616;8.824;2023-02-23T03:36:19;11.40;99.90
66608;DHT22;53462;39.616;8.824;2023-02-23T03:39:18;11.20;99.90
66608;DHT22;53462;39.616;8.824;2023-02-23T03:42:10;11.20;99.90
66608;DHT22;53462;39.616;8.824;2023-02-23T03:44:56;11.20;99.90
66608;DHT22;53462;39.616;8.824;2023-02-23T03:47:43;11.10;99.90
66608;DHT22;53462;39.616;8.824;2023-02-23T03:50:46;11.00;99.90
66608;DHT22;53462;39.616;8.824;2023-02-23T03:53:43;11.10;99.90
66608;DHT22;53462;39.616;8.824;2023-02-23T03:56:33;11.10;99.90
66608;DHT22;53462;39.616;8.824;2023-02-23T03:59:24;11.20;99.90
66608;DHT22;53462;39.616;8.824;2023-02-23T04:02:13;11.30;99.90
66608;DHT22;53462;39.616;8.824;2023-02-23T04:05:01;11.30;99.90
66608;DHT22;53462;39.616;8.824;2023-02-23T04:07:47;11.20;99.90
66608;DHT22;53462;39.616;8.824;2023-02-23T04:10:34;11.20;99.90
66608;DHT22;53462;39.616;8.824;2023-02-23T04:13:26;11.20;99.90
66608;DHT22;53462;39.616;8.824;2023-02-23T04:15:56;11.30;99.90
66608;DHT22;53462;39.616;8.824;2023-02-23T04:18:26;11.30;99.90
66608;DHT22;53462;39.616;8.824;2023-02-23T04:20:54;11.40;99.90
66608;DHT22;53462;39.616;8.824;2023-02-23T04:23:20;11.40;99.90
66608;DHT22;53462;39.616;8.824;2023-02-23T04:25:48;11.40;99.90
66608;DHT22;53462;39.616;8.824;2023-02-23T04:28:16;11.20;99.90
66608;DHT22;53462;39.616;8.824;2023-02-23T04:30:42;11.20;99.90
66608;DHT22;53462;39.616;8.824;2023-02-23T04:33:08;11.00;99.90
66608;DHT22;53462;39.616;8.824;2023-02-23T04:35:34;11.00;99.90
66608;DHT22;53462;39.616;8.824;2023-02-23T04:38:00;11.10;99.90
66608;DHT22;53462;39.616;8.824;2023-02-23T04:40:27;11.10;99.90
66608;DHT22;53462;39.616;8.824;2023-02-23T04:42:53;11.10;99.90
66608;DHT22;53462;39.616;8.824;2023-02-23T04:45:20;11.10;99.90
66608;DHT22;53462;39.616;8.824;2023-02-23T04:47:46;11.10;99.90
66608;DHT22;53462;39.616;8.824;2023-02-23T04:50:13;11.20;99.90
66608;DHT22;53462;39.616;8.824;2023-02-23T04:52:39;11.10;99.90
66608;DHT22;53462;39.616;8.824;2023-02-23T04:55:06;11.10;99.90
66608;DHT22;53462;39.616;8.824;2023-02-23T04:57:34;11.00;99.90
66608;DHT22;53462;39.616;8.824;2023-02-23T05:00:00;11.00;99.90
66608;DHT22;53462;39.616;8.824;2023-02-23T05:02:29;11.00;99.90
66608;DHT22;53462;39.616;8.824;2023-02-23T05:04:54;11.00;99.90
66608;DHT22;53462;39.616;8.824;2023-02-23T05:07:20;11.00;99.90
66608;DHT22;53462;39.616;8.824;2023-02-23T05:09:47;11.00;99.90
66608;DHT22;53462;39.616;8.824;2023-02-23T05:12:13;11.10;99.90
66608;DHT22;53462;39.616;8.824;2023-02-23T05:14:38;11.20;99.90
66608;DHT22;53462;39.616;8.824;2023-02-23T05:17:04;11.10;99.90
66608;DHT22;53462;39.616;8.824;2023-02-23T05:19:31;11.10;99.90
66608;DHT22;53462;39.616;8.824;2023-02-23T05:21:57;11.00;99.90
66608;DHT22;53462;39.616;8.824;2023-02-23T05:24:23;11.00;99.90
66608;DHT22;53462;39.616;8.824;2023-02-23T05:26:50;11.10;99.90
66608;DHT22;53462;39.616;8.824;2023-02-23T05:29:16;11.10;99.90
66608;DHT22;53462;39.616;8.824;2023-02-23T05:31:43;11.10;99.90
66608;DHT22;53462;39.616;8.824;2023-02-23T05:34:09;11.10;99.90
66608;DHT22;53462;39.616;8.824;2023-02-23T05:36:35;11.00;99.90
66608;DHT22;53462;39.616;8.824;2023-02-23T05:39:02;11.10;99.90
66608;DHT22;53462;39.616;8.824;2023-02-23T05:41:28;11.00;99.90
66608;DHT22;53462;39.616;8.824;2023-02-23T05:43:54;10.90;99.90
66608;DHT22;53462;39.616;8.824;2023-02-23T05:46:23;10.80;99.90
66608;DHT22;53462;39.616;8.824;2023-02-23T05:48:54;10.80;99.90
66608;DHT22;53462;39.616;8.824;2023-02-23T05:51:20;10.80;99.90
66608;DHT22;53462;39.616;8.824;2023-02-23T05:53:46;10.70;99.90
66608;DHT22;53462;39.616;8.824;2023-02-23T05:56:15;10.60;99.90
66608;DHT22;53462;39.616;8.824;2023-02-23T05:58:49;10.50;99.90
66608;DHT22;53462;39.616;8.824;2023-02-23T06:01:16;10.50;99.90
66608;DHT22;53462;39.616;8.824;2023-02-23T06:03:43;10.40;99.90
66608;DHT22;53462;39.616;8.824;2023-02-23T06:06:09;10.30;99.90
66608;DHT22;53462;39.616;8.824;2023-02-23T06:08:36;10.20;99.90
66608;DHT22;53462;39.616;8.824;2023-02-23T06:11:02;10.10;99.90
66608;DHT22;53462;39.616;8.824;2023-02-23T06:13:29;10.20;99.90
66608;DHT22;53462;39.616;8.824;2023-02-23T06:15:57;10.20;99.90
66608;DHT22;53462;39.616;8.824;2023-02-23T06:18:24;10.10;99.90
66608;DHT22;53462;39.616;8.824;2023-02-23T06:20:51;10.00;99.90
66608;DHT22;53462;39.616;8.824;2023-02-23T06:23:17;9.90;99.90
66608;DHT22;53462;39.616;8.824;2023-02-23T06:25:45;10.10;99.90
66608;DHT22;53462;39.616;8.824;2023-02-23T06:28:11;10.20;99.90
66608;DHT22;53462;39.616;8.824;2023-02-23T06:30:38;10.20;99.90
66608;DHT22;53462;39.616;8.824;2023-02-23T06:33:05;10.20;99.90
66608;DHT22;53462;39.616;8.824;2023-02-23T06:35:32;10.10;99.90
66608;DHT22;53462;39.616;8.824;2023-02-23T06:37:59;10.20;99.90
66608;DHT22;53462;39.616;8.824;2023-02-23T06:40:26;10.30;99.90
66608;DHT22;53462;39.616;8.824;2023-02-23T06:42:52;10.40;99.90
66608;DHT22;53462;39.616;8.824;2023-02-23T06:45:18;10.50;99.90
66608;DHT22;53462;39.616;8.824;2023-02-23T06:47:44;10.60;99.90
66608;DHT22;53462;39.616;8.824;2023-02-23T06:50:12;10.50;99.90
66608;DHT22;53462;39.616;8.824;2023-02-23T06:52:38;10.50;99.90
66608;DHT22;53462;39.616;8.824;2023-02-23T06:55:05;10.70;99.90
66608;DHT22;53462;39.616;8.824;2023-02-23T06:57:31;10.80;99.90
66608;DHT22;53462;39.616;8.824;2023-02-23T06:59:57;10.70;99.90
66608;DHT22;53462;39.616;8.824;2023-02-23T07:02:23;10.70;99.90
66608;DHT22;53462;39.616;8.824;2023-02-23T07:04:49;10.80;99.90
66608;DHT22;53462;39.616;8.824;2023-02-23T07:07:15;10.90;99.90
66608;DHT22;53462;39.616;8.824;2023-02-23T07:09:41;11.00;99.90
66608;DHT22;53462;39.616;8.824;2023-02-23T07:12:08;10.90;99.90
66608;DHT22;53462;39.616;8.824;2023-02-23T07:14:35;10.90;99.90
66608;DHT22;53462;39.616;8.824;2023-02-23T07:17:03;10.80;99.90
66608;DHT22;53462;39.616;8.824;2023-02-23T07:19:29;10.60;99.90
66608;DHT22;53462;39.616;8.824;2023-02-23T07:21:55;10.70;99.90
66608;DHT22;53462;39.616;8.824;2023-02-23T07:24:21;10.80;99.90
66608;DHT22;53462;39.616;8.824;2023-02-23T07:26:48;10.70;99.90
66608;DHT22;53462;39.616;8.824;2023-02-23T07:29:15;10.80;99.90
66608;DHT22;53462;39.616;8.824;2023-02-23T07:31:41;10.80;99.90
66608;DHT22;53462;39.616;8.824;2023-02-23T07:34:07;10.90;99.90
66608;DHT22;53462;39.616;8.824;2023-02-23T07:36:34;10.90;99.90
66608;DHT22;53462;39.616;8.824;2023-02-23T07:39:00;10.90;99.90
66608;DHT22;53462;39.616;8.824;2023-02-23T07:41:26;11.00;99.90
66608;DHT22;53462;39.616;8.824;2023-02-23T07:43:52;10.80;99.90
66608;DHT22;53462;39.616;8.824;2023-02-23T07:46:18;10.90;99.90
66608;DHT22;53462;39.616;8.824;2023-02-23T07:48:45;11.00;99.90
66608;DHT22;53462;39.616;8.824;2023-02-23T07:51:12;11.00;99.90
66608;DHT22;53462;39.616;8.824;2023-02-23T07:53:40;11.00;99.90
66608;DHT22;53462;39.616;8.824;2023-02-23T07:56:07;11.00;99.90
66608;DHT22;53462;39.616;8.824;2023-02-23T07:58:41;11.00;99.90
66608;DHT22;53462;39.616;8.824;2023-02-23T08:01:09;10.90;99.90
66608;DHT22;53462;39.616;8.824;2023-02-23T08:03:35;11.00;99.90
66608;DHT22;53462;39.616;8.824;2023-02-23T08:06:01;11.10;99.90
66608;DHT22;53462;39.616;8.824;2023-02-23T08:08:27;11.10;99.90
66608;DHT22;53462;39.616;8.824;2023-02-23T08:11:01;11.20;99.90
66608;DHT22;53462;39.616;8.824;2023-02-23T08:13:27;11.00;99.90
66608;DHT22;53462;39.616;8.824;2023-02-23T08:15:54;11.00;99.90
66608;DHT22;53462;39.616;8.824;2023-02-23T08:18:20;11.00;99.90
66608;DHT22;53462;39.616;8.824;2023-02-23T08:20:46;11.10;99.90
66608;DHT22;53462;39.616;8.824;2023-02-23T08:23:12;11.10;99.90
66608;DHT22;53462;39.616;8.824;2023-02-23T08:25:38;11.10;99.90
66608;DHT22;53462;39.616;8.824;2023-02-23T08:28:04;11.10;99.90
66608;DHT22;53462;39.616;8.824;2023-02-23T08:30:32;11.20;99.90
66608;DHT22;53462;39.616;8.824;2023-02-23T08:32:58;11.20;99.90
66608;DHT22;53462;39.616;8.824;2023-02-23T08:35:27;11.20;99.90
66608;DHT22;53462;39.616;8.824;2023-02-23T08:37:55;11.20;99.90
66608;DHT22;53462;39.616;8.824;2023-02-23T08:40:22;11.20;99.90
66608;DHT22;53462;39.616;8.824;2023-02-23T08:42:48;11.20;99.90
66608;DHT22;53462;39.616;8.824;2023-02-23T08:45:16;11.20;99.90
66608;DHT22;53462;39.616;8.824;2023-02-23T08:47:43;11.20;99.90
66608;DHT22;53462;39.616;8.824;2023-02-23T08:50:09;11.40;99.90
66608;DHT22;53462;39.616;8.824;2023-02-23T08:52:36;11.40;99.90
66608;DHT22;53462;39.616;8.824;2023-02-23T08:55:03;11.40;99.90
66608;DHT22;53462;39.616;8.824;2023-02-23T08:57:32;11.60;99.90
66608;DHT22;53462;39.616;8.824;2023-02-23T08:59:58;11.60;99.90
66608;DHT22;53462;39.616;8.824;2023-02-23T09:02:24;11.50;99.90
66608;DHT22;53462;39.616;8.824;2023-02-23T09:04:50;11.80;99.90
66608;DHT22;53462;39.616;8.824;2023-02-23T09:07:20;11.70;99.90
66608;DHT22;53462;39.616;8.824;2023-02-23T09:09:54;11.70;99.90
66608;DHT22;53462;39.616;8.824;2023-02-23T09:12:21;11.70;99.90
66608;DHT22;53462;39.616;8.824;2023-02-23T09:14:46;11.70;99.90
66608;DHT22;53462;39.616;8.824;2023-02-23T09:17:12;11.80;99.90
66608;DHT22;53462;39.616;8.824;2023-02-23T09:19:38;11.90;99.90
66608;DHT22;53462;39.616;8.824;2023-02-23T09:22:04;12.10;99.90
66608;DHT22;53462;39.616;8.824;2023-02-23T09:24:30;11.90;99.90
66608;DHT22;53462;39.616;8.824;2023-02-23T09:26:57;12.00;99.90
66608;DHT22;53462;39.616;8.824;2023-02-23T09:29:23;12.10;99.90
66608;DHT22;53462;39.616;8.824;2023-02-23T09:31:49;12.20;99.90
66608;DHT22;53462;39.616;8.824;2023-02-23T09:34:18;12.00;99.90
66608;DHT22;53462;39.616;8.824;2023-02-23T09:36:44;12.00;99.90
66608;DHT22;53462;39.616;8.824;2023-02-23T09:39:10;11.90;99.90
66608;DHT22;53462;39.616;8.824;2023-02-23T09:45:01;12.00;99.90
66608;DHT22;53462;39.616;8.824;2023-02-23T09:50:17;11.80;99.90
66608;DHT22;53462;39.616;8.824;2023-02-23T09:52:50;12.00;99.90
66608;DHT22;53462;39.616;8.824;2023-02-23T09:55:17;12.10;99.90
66608;DHT22;53462;39.616;8.824;2023-02-23T09:57:45;11.80;99.90
66608;DHT22;53462;39.616;8.824;2023-02-23T10:00:22;11.90;99.90
66608;DHT22;53462;39.616;8.824;2023-02-23T10:03:16;12.00;99.90
66608;DHT22;53462;39.616;8.824;2023-02-23T10:05:52;11.90;99.90
66608;DHT22;53462;39.616;8.824;2023-02-23T10:08:29;12.00;99.90
66608;DHT22;53462;39.616;8.824;2023-02-23T10:21:42;12.60;99.90
66608;DHT22;53462;39.616;8.824;2023-02-23T10:24:22;12.70;99.90
66608;DHT22;53462;39.616;8.824;2023-02-23T10:26:59;12.60;99.90
66608;DHT22;53462;39.616;8.824;2023-02-23T10:34:55;12.80;99.90
66608;DHT22;53462;39.616;8.824;2023-02-23T10:37:23;13.00;99.90
66608;DHT22;53462;39.616;8.824;2023-02-23T10:39:50;13.10;99.90
66608;DHT22;53462;39.616;8.824;2023-02-23T10:42:20;13.00;99.90
66608;DHT22;53462;39.616;8.824;2023-02-23T10:44:47;13.50;99.90
66608;DHT22;53462;39.616;8.824;2023-02-23T10:47:26;13.40;99.30
66608;DHT22;53462;39.616;8.824;2023-02-23T10:49:55;13.30;99.80
66608;DHT22;53462;39.616;8.824;2023-02-23T10:52:42;13.40;98.20
66608;DHT22;53462;39.616;8.824;2023-02-23T10:55:39;13.40;98.20
66608;DHT22;53462;39.616;8.824;2023-02-23T10:58:18;13.50;96.50
66608;DHT22;53462;39.616;8.824;2023-02-23T11:01:02;13.40;96.90
66608;DHT22;53462;39.616;8.824;2023-02-23T11:03:38;14.20;94.40
66608;DHT22;53462;39.616;8.824;2023-02-23T11:06:05;14.10;94.00
66608;DHT22;53462;39.616;8.824;2023-02-23T11:08:34;13.70;95.80
66608;DHT22;53462;39.616;8.824;2023-02-23T11:11:24;13.90;96.20
66608;DHT22;53462;39.616;8.824;2023-02-23T11:13:51;13.90;95.40
66608;DHT22;53462;39.616;8.824;2023-02-23T11:16:28;13.70;95.90
66608;DHT22;53462;39.616;8.824;2023-02-23T11:19:00;13.60;96.60
66608;DHT22;53462;39.616;8.824;2023-02-23T11:21:34;13.50;96.90
66608;DHT22;53462;39.616;8.824;2023-02-23T11:24:35;13.60;98.60
66608;DHT22;53462;39.616;8.824;2023-02-23T11:27:06;14.10;96.50
66608;DHT22;53462;39.616;8.824;2023-02-23T11:29:39;13.90;96.00
66608;DHT22;53462;39.616;8.824;2023-02-23T11:32:32;14.00;97.30
66608;DHT22;53462;39.616;8.824;2023-02-23T11:37:47;14.20;94.60
66608;DHT22;53462;39.616;8.824;2023-02-23T11:40:26;14.20;95.40
66608;DHT22;53462;39.616;8.824;2023-02-23T11:43:05;13.80;94.80
66608;DHT22;53462;39.616;8.824;2023-02-23T11:45:47;13.50;97.60
66608;DHT22;53462;39.616;8.824;2023-02-23T11:48:27;13.80;97.60
66608;DHT22;53462;39.616;8.824;2023-02-23T11:50:55;13.80;96.90
66608;DHT22;53462;39.616;8.824;2023-02-23T11:53:33;14.00;96.40
66608;DHT22;53462;39.616;8.824;2023-02-23T11:56:01;14.50;94.50
66608;DHT22;53462;39.616;8.824;2023-02-23T12:01:09;15.00;91.80
66608;DHT22;53462;39.616;8.824;2023-02-23T12:03:56;16.10;88.20
66608;DHT22;53462;39.616;8.824;2023-02-23T12:06:40;15.70;87.70
66608;DHT22;53462;39.616;8.824;2023-02-23T12:09:22;15.40;88.20
66608;DHT22;53462;39.616;8.824;2023-02-23T12:12:08;14.80;90.70
66608;DHT22;53462;39.616;8.824;2023-02-23T12:14:52;15.40;90.20
66608;DHT22;53462;39.616;8.824;2023-02-23T12:17:25;15.60;88.80
66608;DHT22;53462;39.616;8.824;2023-02-23T12:20:06;15.70;86.60
66608;DHT22;53462;39.616;8.824;2023-02-23T12:22:50;15.90;86.60
66608;DHT22;53462;39.616;8.824;2023-02-23T12:30:49;16.30;85.20
66608;DHT22;53462;39.616;8.824;2023-02-23T12:33:32;16.50;84.70
66608;DHT22;53462;39.616;8.824;2023-02-23T12:36:34;16.60;85.20
66608;DHT22;53462;39.616;8.824;2023-02-23T12:39:10;17.10;82.40
66608;DHT22;53462;39.616;8.824;2023-02-23T12:41:50;16.40;84.60
66608;DHT22;53462;39.616;8.824;2023-02-23T12:44:43;16.90;83.50
66608;DHT22;53462;39.616;8.824;2023-02-23T12:50:04;17.00;82.20
66608;DHT22;53462;39.616;8.824;2023-02-23T12:52:52;17.10;82.20
66608;DHT22;53462;39.616;8.824;2023-02-23T12:55:29;17.20;82.50
66608;DHT22;53462;39.616;8.824;2023-02-23T13:00:46;17.00;83.00
66608;DHT22;53462;39.616;8.824;2023-02-23T13:12:05;16.90;83.30
66608;DHT22;53462;39.616;8.824;2023-02-23T13:14:53;16.90;82.70
66608;DHT22;53462;39.616;8.824;2023-02-23T13:20:40;16.50;84.70
66608;DHT22;53462;39.616;8.824;2023-02-23T13:23:31;16.90;84.40
66608;DHT22;53462;39.616;8.824;2023-02-23T13:29:24;17.30;81.40
66608;DHT22;53462;39.616;8.824;2023-02-23T13:31:51;17.40;82.40
66608;DHT22;53462;39.616;8.824;2023-02-23T13:34:30;17.30;81.20
66608;DHT22;53462;39.616;8.824;2023-02-23T13:37:01;17.30;82.00
66608;DHT22;53462;39.616;8.824;2023-02-23T13:45:25;16.30;85.30
66608;DHT22;53462;39.616;8.824;2023-02-23T13:53:42;17.40;81.00
66608;DHT22;53462;39.616;8.824;2023-02-23T13:56:17;17.80;80.00
66608;DHT22;53462;39.616;8.824;2023-02-23T13:59:06;17.70;80.60
66608;DHT22;53462;39.616;8.824;2023-02-23T14:01:38;17.30;81.50
66608;DHT22;53462;39.616;8.824;2023-02-23T14:04:11;17.40;82.80
66608;DHT22;53462;39.616;8.824;2023-02-23T14:06:39;16.70;84.80
66608;DHT22;53462;39.616;8.824;2023-02-23T14:09:30;17.00;84.50
66608;DHT22;53462;39.616;8.824;2023-02-23T14:23:31;16.80;85.50
66608;DHT22;53462;39.616;8.824;2023-02-23T14:28:47;17.10;83.30
66608;DHT22;53462;39.616;8.824;2023-02-23T14:31:33;17.30;83.60
66608;DHT22;53462;39.616;8.824;2023-02-23T14:34:11;17.20;84.30
66608;DHT22;53462;39.616;8.824;2023-02-23T14:36:41;17.00;84.30
66608;DHT22;53462;39.616;8.824;2023-02-23T14:39:15;16.90;85.30
66608;DHT22;53462;39.616;8.824;2023-02-23T14:41:44;17.10;84.90
66608;DHT22;53462;39.616;8.824;2023-02-23T14:44:34;16.90;85.60
66608;DHT22;53462;39.616;8.824;2023-02-23T14:47:06;16.60;87.20
66608;DHT22;53462;39.616;8.824;2023-02-23T14:49:35;16.30;88.60
66608;DHT22;53462;39.616;8.824;2023-02-23T14:52:27;16.30;88.50
66608;DHT22;53462;39.616;8.824;2023-02-23T14:55:05;16.10;89.50
66608;DHT22;53462;39.616;8.824;2023-02-23T14:57:35;16.00;89.70
66608;DHT22;53462;39.616;8.824;2023-02-23T15:00:06;16.00;90.80
66608;DHT22;53462;39.616;8.824;2023-02-23T15:02:32;16.00;90.20
66608;DHT22;53462;39.616;8.824;2023-02-23T15:04:58;16.20;89.50
66608;DHT22;53462;39.616;8.824;2023-02-23T15:07:31;16.00;89.10
66608;DHT22;53462;39.616;8.824;2023-02-23T15:10:00;15.80;90.60
66608;DHT22;53462;39.616;8.824;2023-02-23T15:12:35;16.00;90.60
66608;DHT22;53462;39.616;8.824;2023-02-23T15:15:06;16.20;90.00
66608;DHT22;53462;39.616;8.824;2023-02-23T15:17:41;16.00;89.60
66608;DHT22;53462;39.616;8.824;2023-02-23T15:20:18;15.90;90.60
66608;DHT22;53462;39.616;8.824;2023-02-23T15:22:51;16.10;91.50
66608;DHT22;53462;39.616;8.824;2023-02-23T15:25:23;16.00;90.80
66608;DHT22;53462;39.616;8.824;2023-02-23T15:27:50;15.70;90.80
66608;DHT22;53462;39.616;8.824;2023-02-23T15:30:31;15.70;91.50
66608;DHT22;53462;39.616;8.824;2023-02-23T15:33:04;15.80;91.40
66608;DHT22;53462;39.616;8.824;2023-02-23T15:35:35;15.60;92.10
66608;DHT22;53462;39.616;8.824;2023-02-23T15:38:07;15.60;91.70
66608;DHT22;53462;39.616;8.824;2023-02-23T15:40:34;15.50;93.00
66608;DHT22;53462;39.616;8.824;2023-02-23T15:43:00;15.50;93.10
66608;DHT22;53462;39.616;8.824;2023-02-23T15:45:39;15.60;93.70
66608;DHT22;53462;39.616;8.824;2023-02-23T15:48:17;15.60;93.10
66608;DHT22;53462;39.616;8.824;2023-02-23T15:50:53;15.60;92.60
66608;DHT22;53462;39.616;8.824;2023-02-23T15:55:47;15.40;93.40
66608;DHT22;53462;39.616;8.824;2023-02-23T15:58:28;15.30;94.10
66608;DHT22;53462;39.616;8.824;2023-02-23T16:03:34;15.00;94.90
66608;DHT22;53462;39.616;8.824;2023-02-23T16:06:02;15.10;95.50
66608;DHT22;53462;39.616;8.824;2023-02-23T16:08:29;15.10;95.20
66608;DHT22;53462;39.616;8.824;2023-02-23T16:11:14;15.00;95.90
66608;DHT22;53462;39.616;8.824;2023-02-23T16:13:44;14.80;96.30
66608;DHT22;53462;39.616;8.824;2023-02-23T16:16:11;14.60;96.90
66608;DHT22;53462;39.616;8.824;2023-02-23T16:18:50;14.50;98.20
66608;DHT22;53462;39.616;8.824;2023-02-23T16:21:20;14.50;98.10
66608;DHT22;53462;39.616;8.824;2023-02-23T16:23:49;14.30;99.20
66608;DHT22;53462;39.616;8.824;2023-02-23T16:29:32;14.10;99.90
66608;DHT22;53462;39.616;8.824;2023-02-23T16:32:00;14.30;99.90
66608;DHT22;53462;39.616;8.824;2023-02-23T16:34:31;14.20;99.90
66608;DHT22;53462;39.616;8.824;2023-02-23T16:37:02;14.10;99.90
66608;DHT22;53462;39.616;8.824;2023-02-23T16:39:30;14.10;99.90
66608;DHT22;53462;39.616;8.824;2023-02-23T16:41:59;14.10;99.90
66608;DHT22;53462;39.616;8.824;2023-02-23T16:44:27;14.00;99.90
66608;DHT22;53462;39.616;8.824;2023-02-23T16:47:10;13.90;99.90
66608;DHT22;53462;39.616;8.824;2023-02-23T16:49:37;13.90;99.90
66608;DHT22;53462;39.616;8.824;2023-02-23T16:52:13;14.00;99.90
66608;DHT22;53462;39.616;8.824;2023-02-23T16:54:40;14.00;99.90
66608;DHT22;53462;39.616;8.824;2023-02-23T16:57:17;13.90;99.90
66608;DHT22;53462;39.616;8.824;2023-02-23T16:59:43;14.00;99.90
66608;DHT22;53462;39.616;8.824;2023-02-23T17:02:12;13.90;99.90
66608;DHT22;53462;39.616;8.824;2023-02-23T17:04:38;13.70;99.90
66608;DHT22;53462;39.616;8.824;2023-02-23T17:07:04;13.60;99.90
66608;DHT22;53462;39.616;8.824;2023-02-23T17:09:30;13.60;99.90
66608;DHT22;53462;39.616;8.824;2023-02-23T17:11:55;13.60;99.90
66608;DHT22;53462;39.616;8.824;2023-02-23T17:14:26;13.50;99.90
66608;DHT22;53462;39.616;8.824;2023-02-23T17:16:53;13.40;99.90
66608;DHT22;53462;39.616;8.824;2023-02-23T17:19:19;13.40;99.90
66608;DHT22;53462;39.616;8.824;2023-02-23T17:21:45;13.30;99.90
66608;DHT22;53462;39.616;8.824;2023-02-23T17:24:11;13.30;99.90
66608;DHT22;53462;39.616;8.824;2023-02-23T17:26:37;13.20;99.90
66608;DHT22;53462;39.616;8.824;2023-02-23T17:29:04;13.20;99.90
66608;DHT22;53462;39.616;8.824;2023-02-23T17:31:30;13.00;99.90
66608;DHT22;53462;39.616;8.824;2023-02-23T17:33:56;13.10;99.90
66608;DHT22;53462;39.616;8.824;2023-02-23T17:36:22;13.00;99.90
66608;DHT22;53462;39.616;8.824;2023-02-23T17:38:48;13.00;99.90
66608;DHT22;53462;39.616;8.824;2023-02-23T17:41:16;12.90;99.90
66608;DHT22;53462;39.616;8.824;2023-02-23T17:43:42;12.90;99.90
66608;DHT22;53462;39.616;8.824;2023-02-23T17:46:09;12.80;99.90
66608;DHT22;53462;39.616;8.824;2023-02-23T17:48:36;12.80;99.90
66608;DHT22;53462;39.616;8.824;2023-02-23T17:51:04;12.60;99.90
66608;DHT22;53462;39.616;8.824;2023-02-23T17:53:31;12.60;99.90
66608;DHT22;53462;39.616;8.824;2023-02-23T17:55:57;12.60;99.90
66608;DHT22;53462;39.616;8.824;2023-02-23T17:58:23;12.60;99.90
66608;DHT22;53462;39.616;8.824;2023-02-23T18:00:57;12.50;99.90
66608;DHT22;53462;39.616;8.824;2023-02-23T18:03:24;12.50;99.90
66608;DHT22;53462;39.616;8.824;2023-02-23T18:06:10;12.50;99.90